Startpagina
METAR-TAF:

METAR-TAF

Vliegvelden :

Durazno, Uruguay

breedte: 33-21S, lengte: 056-30W, hoogte: 93 m

Actueel weer

Dit bericht is 4 uur en het 33 minuten geleden gemaakt, om 19:00 UTC
Wind 8 kt uit het noordnoordoosten
Temperatuur 26°C
Vochtigheid 48%
Druk 1016 hPa
Zicht 10 km of meer
Verspreide wolken op 2300 ft
Gebroken wolken op 20000 ft

METAR: SUDU 231900Z 02008KT 9999 SCT023 BKN200 26/14 Q1016

Tijdstip: 20:33 (23:33 UTC)

Verwachting

Dit bericht is 6 uur en het 3 minuten geleden gemaakt, om 17:30 UTC
Verwachting geldig van 23 om 18 UTC tot 24 om 18 UTC
Wind 8 kt uit het noordoosten
Zicht 10 km of meer
Verspreide wolken op 2300 ft
Gebroken wolken op 20000 ft

TAF: SUDU 231730Z 2318/2418 05008KT 9999 SCT023 BKN200 TX32/2418Z TN15/2410Z

Waarnemingen en weersverwachtingen van meer dan 4000 vliegvelden (METAR en TAF).

De beschikbare stations zijn de gele en rode punten op de kaart.

Ga met uw muis naar het station om de naam te zien.

Klik dan om waarnemingen en weersverwachtingen te zien.

kaart wijzigen: klik op de groene knoppen met een zwart kruis om in te zoomen, op de groene knop met een streepje om uit te zoomen of op de groene pijlen voor aangrenzende kaarten.


METAR-TAF: